createdAt,value
2019-02-10T00:00:44.915Z,2.20
2019-02-10T00:03:15.816Z,2.57
2019-02-10T00:05:46.768Z,2.17
2019-02-10T00:08:19.403Z,1.87
2019-02-10T00:10:50.360Z,2.83
2019-02-10T00:13:32.491Z,2.23
2019-02-10T00:16:06.425Z,2.20
2019-02-10T00:18:37.631Z,2.17
2019-02-10T00:21:08.574Z,2.73
2019-02-10T00:23:39.518Z,3.03
2019-02-10T00:26:11.893Z,2.10
2019-02-10T00:28:42.777Z,2.17
2019-02-10T00:31:13.949Z,4.83
2019-02-10T00:33:44.998Z,2.50
2019-02-10T00:36:16.756Z,2.27
2019-02-10T00:38:47.741Z,2.40
2019-02-10T00:41:18.816Z,3.17
2019-02-10T00:43:49.691Z,2.10
2019-02-10T00:46:20.594Z,1.97
2019-02-10T00:48:51.551Z,2.53
2019-02-10T00:51:22.405Z,2.43
2019-02-10T00:53:53.385Z,3.07
2019-02-10T00:56:24.377Z,2.30
2019-02-10T00:58:55.383Z,2.93
2019-02-10T01:01:26.381Z,2.07
2019-02-10T01:03:57.266Z,2.50
2019-02-10T01:06:28.150Z,2.20
2019-02-10T01:08:59.396Z,2.90
2019-02-10T01:11:30.277Z,2.43
2019-02-10T01:14:01.601Z,2.27
2019-02-10T01:16:32.802Z,2.33
2019-02-10T01:19:08.850Z,2.43
2019-02-10T01:21:41.612Z,2.83
2019-02-10T01:24:12.607Z,3.03
2019-02-10T01:26:43.479Z,2.13
2019-02-10T01:29:14.349Z,2.87
2019-02-10T01:31:45.241Z,2.07
2019-02-10T01:34:16.317Z,2.20
2019-02-10T01:36:49.850Z,2.10
2019-02-10T01:39:21.713Z,2.70
2019-02-10T01:41:52.589Z,2.37
2019-02-10T01:44:24.611Z,2.50
2019-02-10T01:46:55.441Z,2.67
2019-02-10T01:49:26.329Z,3.57
2019-02-10T01:51:57.277Z,2.40
2019-02-10T01:54:28.141Z,2.87
2019-02-10T01:56:59.066Z,2.10
2019-02-10T01:59:29.968Z,1.93
2019-02-10T02:02:00.888Z,2.57
2019-02-10T02:04:31.771Z,3.03
2019-02-10T02:07:02.577Z,3.03
2019-02-10T02:09:33.460Z,2.43
2019-02-10T02:12:04.638Z,2.33
2019-02-10T02:14:35.503Z,2.47
2019-02-10T02:17:06.351Z,2.30
2019-02-10T02:19:37.223Z,2.13
2019-02-10T02:22:08.091Z,1.93
2019-02-10T02:24:38.984Z,2.20
2019-02-10T02:27:09.836Z,3.20
2019-02-10T02:29:42.193Z,2.40
2019-02-10T02:32:13.096Z,2.30
2019-02-10T02:34:43.985Z,2.60
2019-02-10T02:37:15.928Z,1.73
2019-02-10T02:39:46.917Z,2.13
2019-02-10T02:42:17.787Z,2.17
2019-02-10T02:44:54.685Z,2.20
2019-02-10T02:47:25.666Z,1.93
2019-02-10T02:49:56.651Z,1.77
2019-02-10T02:52:27.546Z,3.33
2019-02-10T02:54:58.450Z,2.43
2019-02-10T02:57:29.415Z,1.70
2019-02-10T03:00:00.496Z,1.93
2019-02-10T03:02:31.415Z,2.23
2019-02-10T03:05:02.373Z,2.37
2019-02-10T03:07:33.240Z,2.57
2019-02-10T03:10:04.189Z,1.90
2019-02-10T03:12:35.098Z,2.67
2019-02-10T03:15:06.598Z,2.33
2019-02-10T03:17:37.540Z,2.40
2019-02-10T03:20:08.687Z,1.70
2019-02-10T03:22:42.180Z,2.33
2019-02-10T03:25:13.085Z,2.30
2019-02-10T03:27:43.861Z,1.93
2019-02-10T03:30:14.832Z,2.57
2019-02-10T03:32:45.757Z,2.57
2019-02-10T03:35:16.650Z,1.87
2019-02-10T03:37:47.761Z,2.27
2019-02-10T03:40:20.238Z,1.73
2019-02-10T03:42:51.298Z,2.03
2019-02-10T03:45:22.058Z,1.93
2019-02-10T03:47:52.951Z,1.67
2019-02-10T03:50:23.793Z,1.80
2019-02-10T03:52:54.832Z,1.97
2019-02-10T03:55:25.704Z,2.03
2019-02-10T03:57:56.710Z,1.10
2019-02-10T04:00:27.551Z,1.47
2019-02-10T04:02:58.398Z,1.50
2019-02-10T04:05:29.187Z,1.50
2019-02-10T04:08:00.028Z,1.37
2019-02-10T04:10:30.896Z,1.30
2019-02-10T04:13:01.826Z,1.33
2019-02-10T04:15:32.729Z,1.60
2019-02-10T04:18:03.722Z,1.13
2019-02-10T04:20:34.486Z,1.80
2019-02-10T04:23:09.240Z,2.23
2019-02-10T04:25:40.086Z,2.50
2019-02-10T04:28:10.953Z,2.27
2019-02-10T04:30:41.801Z,1.83
2019-02-10T04:33:12.642Z,1.90
2019-02-10T04:35:43.414Z,1.43
2019-02-10T04:38:14.418Z,1.90
2019-02-10T04:40:45.325Z,1.93
2019-02-10T04:43:16.284Z,1.53
2019-02-10T04:45:47.137Z,1.30
2019-02-10T04:48:17.999Z,1.30
2019-02-10T04:50:48.858Z,1.27
2019-02-10T04:53:19.740Z,1.80
2019-02-10T04:56:12.634Z,1.90
2019-02-10T04:58:43.392Z,1.60
2019-02-10T05:01:14.397Z,1.50
2019-02-10T05:03:45.244Z,1.43
2019-02-10T05:06:16.139Z,1.20
2019-02-10T05:08:47.004Z,1.40
2019-02-10T05:11:17.898Z,1.50
2019-02-10T05:13:48.761Z,1.90
2019-02-10T05:16:19.607Z,1.43
2019-02-10T05:18:52.036Z,1.53
2019-02-10T05:21:22.866Z,1.40
2019-02-10T05:24:02.644Z,1.17
2019-02-10T05:26:28.008Z,1.97
2019-02-10T05:29:00.359Z,1.40
2019-02-10T05:31:32.388Z,1.67
2019-02-10T05:34:03.239Z,0.73
2019-02-10T05:36:34.138Z,1.30
2019-02-10T05:39:06.425Z,1.03
2019-02-10T05:41:41.399Z,1.10
2019-02-10T05:44:12.225Z,1.00
2019-02-10T05:46:43.032Z,1.40
2019-02-10T05:49:14.156Z,1.30
2019-02-10T05:51:45.013Z,1.20
2019-02-10T05:54:16.758Z,1.00
2019-02-10T05:56:47.550Z,1.27
2019-02-10T05:59:18.422Z,1.23
2019-02-10T06:02:33.365Z,1.23
2019-02-10T06:05:07.846Z,1.23
2019-02-10T06:07:38.731Z,2.23
2019-02-10T06:10:09.900Z,1.00
2019-02-10T06:12:40.791Z,0.77
2019-02-10T06:15:12.822Z,1.00
2019-02-10T06:17:43.741Z,1.27
2019-02-10T06:20:14.685Z,0.93
2019-02-10T06:22:45.640Z,0.97
2019-02-10T06:25:16.516Z,1.00
2019-02-10T06:27:47.508Z,0.73
2019-02-10T06:30:18.391Z,1.00
2019-02-10T06:32:49.330Z,1.13
2019-02-10T06:35:20.282Z,1.07
2019-02-10T06:37:51.085Z,0.83
2019-02-10T06:40:23.809Z,0.63
2019-02-10T06:42:56.465Z,0.90
2019-02-10T06:45:27.317Z,0.80
2019-02-10T06:47:58.213Z,0.80
2019-02-10T06:50:29.133Z,0.60
2019-02-10T06:53:00.101Z,1.00
2019-02-10T06:55:31.011Z,0.73
2019-02-10T06:58:01.884Z,0.93
2019-02-10T07:00:54.774Z,1.10
2019-02-10T07:04:02.067Z,0.70
2019-02-10T07:06:33.179Z,0.90
2019-02-10T07:09:05.670Z,0.53
2019-02-10T07:11:36.559Z,0.60
2019-02-10T07:14:20.614Z,0.67
2019-02-10T07:17:34.578Z,0.70
2019-02-10T07:20:48.717Z,0.70
2019-02-10T07:24:05.139Z,0.60
2019-02-10T07:26:59.004Z,0.60
2019-02-10T07:29:52.803Z,0.50
2019-02-10T07:32:28.759Z,0.60
2019-02-10T07:35:49.806Z,0.60
2019-02-10T07:38:38.547Z,0.60
2019-02-10T07:41:45.721Z,0.70
2019-02-10T07:44:38.437Z,0.70
2019-02-10T07:48:08.792Z,0.80
2019-02-10T07:51:29.659Z,0.60
2019-02-10T07:54:41.940Z,0.50
2019-02-10T07:57:43.389Z,0.60
2019-02-10T08:00:48.740Z,0.57
2019-02-10T08:04:03.993Z,0.53
2019-02-10T08:07:02.686Z,0.50
2019-02-10T08:10:22.178Z,0.60
2019-02-10T08:13:29.799Z,0.67
2019-02-10T08:16:59.841Z,0.73
2019-02-10T08:20:16.965Z,0.70
2019-02-10T08:23:07.204Z,0.40
2019-02-10T08:26:07.941Z,0.77
2019-02-10T08:29:11.564Z,0.60
2019-02-10T08:32:19.583Z,0.40
2019-02-10T08:35:28.661Z,0.73
2019-02-10T08:38:54.411Z,0.73
2019-02-10T08:42:04.761Z,0.70
2019-02-10T08:45:25.724Z,0.60
2019-02-10T08:48:32.530Z,0.60
2019-02-10T08:51:37.670Z,0.77
2019-02-10T08:54:09.806Z,0.80
2019-02-10T08:56:40.671Z,0.97
2019-02-10T08:59:12.612Z,0.80
2019-02-10T09:01:43.918Z,0.70
2019-02-10T09:04:14.881Z,0.73
2019-02-10T09:06:45.853Z,0.63
2019-02-10T09:09:16.754Z,0.80
2019-02-10T09:11:47.773Z,0.90
2019-02-10T09:14:18.601Z,1.30
2019-02-10T09:16:52.707Z,1.20
2019-02-10T09:19:23.626Z,0.90
2019-02-10T09:21:56.315Z,0.90
2019-02-10T09:24:27.303Z,1.20
2019-02-10T09:26:58.195Z,0.77
2019-02-10T09:29:29.117Z,0.47
2019-02-10T09:31:59.965Z,0.60
2019-02-10T09:34:32.415Z,0.70
2019-02-10T09:37:03.310Z,0.87
2019-02-10T09:39:34.225Z,0.83
2019-02-10T09:42:05.867Z,0.87
2019-02-10T09:44:37.185Z,1.80
2019-02-10T09:47:09.137Z,1.10
2019-02-10T09:49:40.213Z,1.13
2019-02-10T09:52:12.164Z,1.50
2019-02-10T09:54:43.012Z,1.00
2019-02-10T09:57:14.070Z,1.17
2019-02-10T09:59:46.712Z,1.07
2019-02-10T10:02:17.582Z,1.10
2019-02-10T10:04:48.633Z,0.80
2019-02-10T10:07:19.621Z,2.03
2019-02-10T10:09:50.959Z,0.70
2019-02-10T10:12:21.962Z,0.70
2019-02-10T10:14:52.896Z,0.87
2019-02-10T10:17:23.918Z,0.90
2019-02-10T10:19:55.040Z,1.20
2019-02-10T10:22:26.175Z,0.80
2019-02-10T10:24:57.193Z,1.10
2019-02-10T10:27:28.193Z,0.87
2019-02-10T10:29:59.145Z,2.07
2019-02-10T10:32:37.640Z,0.93
2019-02-10T10:35:10.803Z,0.80
2019-02-10T10:37:48.422Z,0.63
2019-02-10T10:40:19.455Z,0.63
2019-02-10T10:42:50.537Z,0.70
2019-02-10T10:45:21.674Z,0.80
2019-02-10T10:47:52.693Z,0.70
2019-02-10T10:50:24.108Z,0.60
2019-02-10T10:52:55.130Z,0.50
2019-02-10T10:55:26.004Z,0.60
2019-02-10T10:57:57.073Z,0.70
2019-02-10T11:00:28.100Z,0.73
2019-02-10T11:02:59.184Z,0.47
2019-02-10T11:05:30.253Z,0.40
2019-02-10T11:08:01.201Z,0.33
2019-02-10T11:10:32.128Z,1.00
2019-02-10T11:13:03.009Z,1.70
2019-02-10T11:15:33.894Z,0.63
2019-02-10T11:18:04.954Z,0.77
2019-02-10T11:20:35.896Z,0.67
2019-02-10T11:23:06.934Z,0.80
2019-02-10T11:25:38.030Z,0.67
2019-02-10T11:28:08.992Z,0.53
2019-02-10T11:30:40.051Z,1.00
2019-02-10T11:33:10.953Z,0.63
2019-02-10T11:35:41.955Z,1.03
2019-02-10T11:38:12.803Z,1.90
2019-02-10T11:40:45.556Z,3.83
2019-02-10T11:43:16.979Z,3.97
2019-02-10T11:45:48.149Z,3.97
2019-02-10T11:48:19.249Z,3.03
2019-02-10T11:50:50.716Z,1.97
2019-02-10T11:53:22.015Z,1.83
2019-02-10T11:55:53.068Z,2.10
2019-02-10T11:58:24.143Z,1.70
2019-02-10T12:00:55.043Z,1.80
2019-02-10T12:03:27.652Z,1.60
2019-02-10T12:05:58.507Z,2.00
2019-02-10T12:08:35.615Z,2.20
2019-02-10T12:11:02.341Z,1.53
2019-02-10T12:13:33.271Z,1.13
2019-02-10T12:16:05.132Z,1.17
2019-02-10T12:18:36.037Z,1.27
2019-02-10T12:21:08.970Z,1.40
2019-02-10T12:23:39.981Z,0.97
2019-02-10T12:26:10.943Z,2.00
2019-02-10T12:28:43.873Z,1.40
2019-02-10T12:31:14.402Z,1.10
2019-02-10T12:33:47.113Z,1.73
2019-02-10T12:36:20.029Z,2.50
2019-02-10T12:38:50.808Z,3.53
2019-02-10T12:41:21.955Z,4.20
2019-02-10T12:43:54.041Z,3.90
2019-02-10T12:46:25.083Z,4.53
2019-02-10T12:48:56.257Z,4.43
2019-02-10T12:51:28.215Z,5.03
2019-02-10T12:53:59.279Z,4.83
2019-02-10T12:56:30.509Z,5.03
2019-02-10T12:59:01.591Z,5.27
2019-02-10T13:01:32.532Z,5.70
2019-02-10T13:04:03.574Z,5.33
2019-02-10T13:06:34.630Z,5.73
2019-02-10T13:09:08.015Z,5.67
2019-02-10T13:11:40.454Z,5.27
2019-02-10T13:14:11.482Z,4.83
2019-02-10T13:16:43.649Z,4.70
2019-02-10T13:19:14.876Z,5.13
2019-02-10T13:21:45.906Z,4.63
2019-02-10T13:24:16.809Z,4.93
2019-02-10T13:26:48.649Z,4.30
2019-02-10T13:29:20.789Z,4.20
2019-02-10T13:31:53.460Z,3.73
2019-02-10T13:34:27.405Z,4.03
2019-02-10T13:36:58.824Z,3.60
2019-02-10T13:39:29.754Z,3.73
2019-02-10T13:42:02.898Z,4.07
2019-02-10T13:44:35.111Z,4.30
2019-02-10T13:47:06.292Z,4.00
2019-02-10T13:49:37.186Z,4.40
2019-02-10T13:52:08.649Z,4.20
2019-02-10T13:54:39.569Z,4.60
2019-02-10T13:57:10.556Z,4.83
2019-02-10T13:59:41.560Z,5.20
2019-02-10T14:02:12.537Z,4.40
2019-02-10T14:04:43.615Z,4.63
2019-02-10T14:07:14.733Z,5.20
2019-02-10T14:09:45.712Z,4.90
2019-02-10T14:12:16.769Z,5.10
2019-02-10T14:14:48.590Z,4.90
2019-02-10T14:17:19.541Z,5.07
2019-02-10T14:19:50.493Z,5.23
2019-02-10T14:22:21.551Z,5.93
2019-02-10T14:24:52.538Z,5.50
2019-02-10T14:27:23.724Z,4.87
2019-02-10T14:29:54.740Z,5.30
2019-02-10T14:32:25.732Z,5.17
2019-02-10T14:34:56.672Z,5.33
2019-02-10T14:37:27.677Z,4.47
2019-02-10T14:39:58.702Z,4.17
2019-02-10T14:42:31.538Z,3.83
2019-02-10T14:45:02.636Z,3.40
2019-02-10T14:47:33.682Z,3.00
2019-02-10T14:50:05.744Z,2.90
2019-02-10T14:52:37.772Z,2.80
2019-02-10T14:55:08.851Z,2.47
2019-02-10T14:57:39.813Z,2.20
2019-02-10T15:00:11.839Z,2.50
2019-02-10T15:02:45.286Z,2.30
2019-02-10T15:05:16.322Z,1.77
2019-02-10T15:07:47.204Z,1.60
2019-02-10T15:10:18.157Z,1.73
2019-02-10T15:12:49.255Z,1.93
2019-02-10T15:15:21.809Z,1.97
2019-02-10T15:17:52.779Z,1.40
2019-02-10T15:20:23.748Z,2.90
2019-02-10T15:22:54.811Z,2.20
2019-02-10T15:25:25.818Z,1.93
2019-02-10T15:27:56.874Z,1.60
2019-02-10T15:30:27.798Z,1.57
2019-02-10T15:32:58.893Z,1.10
2019-02-10T15:35:31.018Z,1.63
2019-02-10T15:38:02.114Z,1.47
2019-02-10T15:40:33.165Z,1.30
2019-02-10T15:43:04.125Z,1.17
2019-02-10T15:45:36.802Z,1.33
2019-02-10T15:48:09.497Z,1.20
2019-02-10T15:50:40.692Z,1.50
2019-02-10T15:53:11.574Z,1.47
2019-02-10T15:55:42.597Z,1.43
2019-02-10T15:58:13.627Z,2.10
2019-02-10T16:00:44.742Z,2.30
2019-02-10T16:03:15.906Z,2.40
2019-02-10T16:05:46.866Z,2.20
2019-02-10T16:08:17.921Z,2.43
2019-02-10T16:10:49.035Z,2.90
2019-02-10T16:13:20.203Z,2.47
2019-02-10T16:15:51.406Z,1.13
2019-02-10T16:18:22.297Z,1.33
2019-02-10T16:20:53.318Z,1.13
2019-02-10T16:23:24.304Z,1.20
2019-02-10T16:25:56.722Z,1.50
2019-02-10T16:28:27.722Z,1.40
2019-02-10T16:30:58.729Z,2.13
2019-02-10T16:33:29.788Z,2.20
2019-02-10T16:36:00.834Z,1.63
2019-02-10T16:38:31.873Z,1.80
2019-02-10T16:41:06.408Z,2.30
2019-02-10T16:43:35.763Z,1.60
2019-02-10T16:46:07.460Z,1.57
2019-02-10T16:48:38.522Z,1.10
2019-02-10T16:51:09.524Z,1.33
2019-02-10T16:53:41.509Z,1.20
2019-02-10T16:56:12.610Z,0.90
2019-02-10T16:58:43.654Z,1.07
2019-02-10T17:01:14.593Z,1.10
2019-02-10T17:03:45.575Z,1.00
2019-02-10T17:06:16.825Z,1.27
2019-02-10T17:08:47.711Z,1.20
2019-02-10T17:11:18.627Z,1.27
2019-02-10T17:13:49.599Z,1.00
2019-02-10T17:16:20.634Z,0.80
2019-02-10T17:18:51.721Z,1.03
2019-02-10T17:21:23.328Z,0.90
2019-02-10T17:23:54.508Z,1.47
2019-02-10T17:26:25.579Z,0.80
2019-02-10T17:28:56.624Z,0.50
2019-02-10T17:31:27.596Z,0.50
2019-02-10T17:33:58.688Z,0.47
2019-02-10T17:36:29.792Z,0.50
2019-02-10T17:39:01.114Z,0.60
2019-02-10T17:41:40.125Z,0.70
2019-02-10T17:44:11.486Z,0.60
2019-02-10T17:46:42.945Z,0.70
2019-02-10T17:49:14.025Z,0.50
2019-02-10T17:51:45.586Z,0.70
2019-02-10T17:54:16.889Z,0.70
2019-02-10T17:56:49.842Z,0.60
2019-02-10T17:59:20.947Z,0.50
2019-02-10T18:01:52.469Z,0.90
2019-02-10T18:04:24.574Z,0.83
2019-02-10T18:06:56.872Z,0.70
2019-02-10T18:09:28.012Z,1.10
2019-02-10T18:11:59.081Z,0.93
2019-02-10T18:14:48.040Z,0.80
2019-02-10T18:17:24.957Z,1.03
2019-02-10T18:20:17.941Z,0.93
2019-02-10T18:23:09.742Z,1.43
2019-02-10T18:25:57.106Z,1.20
2019-02-10T18:28:50.111Z,0.97
2019-02-10T18:31:42.870Z,0.77
2019-02-10T18:34:23.956Z,0.80
2019-02-10T18:37:19.821Z,1.00
2019-02-10T18:40:02.276Z,1.03
2019-02-10T18:42:53.526Z,0.90
2019-02-10T18:45:43.696Z,1.07
2019-02-10T18:48:32.549Z,0.80
2019-02-10T18:51:15.539Z,1.10
2019-02-10T18:53:59.558Z,1.07
2019-02-10T18:56:58.609Z,1.60
2019-02-10T18:59:48.721Z,1.60
2019-02-10T19:02:42.560Z,1.77
2019-02-10T19:05:41.839Z,1.43
2019-02-10T19:08:31.641Z,1.23
2019-02-10T19:11:10.435Z,1.07
2019-02-10T19:13:59.463Z,1.60
2019-02-10T19:16:52.510Z,1.70
2019-02-10T19:19:45.163Z,2.07
2019-02-10T19:22:35.806Z,1.40
2019-02-10T19:25:22.978Z,1.93
2019-02-10T19:28:22.306Z,1.70
2019-02-10T19:31:14.704Z,2.60
2019-02-10T19:33:56.856Z,2.20
2019-02-10T19:36:38.649Z,2.70
2019-02-10T19:39:36.782Z,2.70
2019-02-10T19:42:26.235Z,3.57
2019-02-10T19:45:14.776Z,2.90
2019-02-10T19:48:05.747Z,2.47
2019-02-10T19:50:55.430Z,2.03
2019-02-10T19:53:34.903Z,2.30
2019-02-10T19:56:18.837Z,2.10
2019-02-10T19:59:08.874Z,2.50
2019-02-10T20:01:57.600Z,2.67
2019-02-10T20:04:56.577Z,2.47
2019-02-10T20:07:46.651Z,2.10
2019-02-10T20:10:36.549Z,3.13
2019-02-10T20:13:32.520Z,2.40
2019-02-10T20:16:16.907Z,2.30
2019-02-10T20:19:21.989Z,2.10
2019-02-10T20:22:17.652Z,2.50
2019-02-10T20:25:16.665Z,2.50
2019-02-10T20:28:04.767Z,2.73
2019-02-10T20:30:49.125Z,2.60
2019-02-10T20:33:30.831Z,2.63
2019-02-10T20:36:23.758Z,2.63
2019-02-10T20:39:12.672Z,2.30
2019-02-10T20:41:51.693Z,2.97
2019-02-10T20:44:41.662Z,2.70
2019-02-10T20:47:30.214Z,3.17
2019-02-10T20:50:25.895Z,2.80
2019-02-10T20:53:17.232Z,3.13
2019-02-10T20:55:54.015Z,3.90
2019-02-10T20:58:59.396Z,2.73
2019-02-10T21:01:39.406Z,3.20
2019-02-10T21:04:17.581Z,3.47
2019-02-10T21:06:57.830Z,4.23
2019-02-10T21:09:59.872Z,4.30
2019-02-10T21:12:48.581Z,3.63
2019-02-10T21:15:43.181Z,3.33
2019-02-10T21:18:33.050Z,3.80
2019-02-10T21:21:39.109Z,3.00
2019-02-10T21:24:24.210Z,3.60
2019-02-10T21:27:05.877Z,3.30
2019-02-10T21:29:54.370Z,1.60
2019-02-10T21:32:35.388Z,1.37
2019-02-10T21:35:31.560Z,1.00
2019-02-10T21:38:24.447Z,1.27
2019-02-10T21:41:20.832Z,0.87
2019-02-10T21:43:56.025Z,0.90
2019-02-10T21:46:31.647Z,0.70
2019-02-10T21:49:06.359Z,0.83
2019-02-10T21:51:37.310Z,0.50
2019-02-10T21:54:08.592Z,0.80
2019-02-10T21:56:39.763Z,1.00
2019-02-10T21:59:11.626Z,1.00
2019-02-10T22:01:45.632Z,0.90
2019-02-10T22:04:16.819Z,1.30
2019-02-10T22:06:47.960Z,1.00
2019-02-10T22:09:18.908Z,0.97
2019-02-10T22:11:49.887Z,0.80
2019-02-10T22:14:20.803Z,0.73
2019-02-10T22:16:51.754Z,0.80
2019-02-10T22:19:23.025Z,0.60
2019-02-10T22:21:53.997Z,0.73
2019-02-10T22:24:24.981Z,0.60
2019-02-10T22:26:55.943Z,0.70
2019-02-10T22:29:26.944Z,0.80
2019-02-10T22:31:59.324Z,0.87
2019-02-10T22:34:30.359Z,0.90
2019-02-10T22:37:01.229Z,1.00
2019-02-10T22:39:32.134Z,0.83
2019-02-10T22:42:03.278Z,0.80
2019-02-10T22:44:34.309Z,0.80
2019-02-10T22:47:05.353Z,0.83
2019-02-10T22:49:36.231Z,0.90
2019-02-10T22:52:08.422Z,0.63
2019-02-10T22:54:40.853Z,1.00
2019-02-10T22:57:11.819Z,0.70
2019-02-10T22:59:43.961Z,0.70
2019-02-10T23:02:15.003Z,0.40
2019-02-10T23:04:46.000Z,0.43
2019-02-10T23:07:16.913Z,0.63
2019-02-10T23:09:47.872Z,0.40
2019-02-10T23:12:18.783Z,0.80
2019-02-10T23:14:49.677Z,0.50
2019-02-10T23:17:20.653Z,0.77
2019-02-10T23:19:51.805Z,0.53
2019-02-10T23:22:22.792Z,0.60
2019-02-10T23:24:53.588Z,0.43
2019-02-10T23:27:25.400Z,0.37
2019-02-10T23:29:56.578Z,0.57
2019-02-10T23:32:27.456Z,0.40
2019-02-10T23:34:58.373Z,0.60
2019-02-10T23:37:29.293Z,0.67
2019-02-10T23:40:03.303Z,0.63
2019-02-10T23:42:34.196Z,0.70
2019-02-10T23:45:05.268Z,0.30
2019-02-10T23:47:36.094Z,1.00
2019-02-10T23:50:08.407Z,1.10
2019-02-10T23:52:39.204Z,0.20
2019-02-10T23:55:10.318Z,0.43
2019-02-10T23:57:41.269Z,0.63
